Cookville, Texas
Current Conditions -  °F | °C
As of 11:15 PM on Friday 28 Nov 2014 (Local Time) from KOSA Reporting Station
Clear Clear  
Wind Chill: 58°   Ceiling: Unl
Heat Index: 58°   Visibility: 10mi
Dew Point: 52°   Wind: 10mph
Humidity: 82%   Direction: 180°S
Pressure: 30.04"   Gusts: 17mph
Location:  33.19°N, 94.85°W
Report Text: KOSA 290515Z AUTO 18009G15KT 10SM CLR 14/11 A3004 RMK AO1 T01420111
Loading
Personal Weather Stations






























Interactive Weather Map New forecast layout! Learn more

10-Day Weather Forecast

Advertisements
Track Severe Weather on mobile